Time;durP1;ratioP1;P1;durP2;ratioP2;P2;SDS_P1;SDS_P2;PMS_P1;PMS_P2;Temp;Humidity;BMP_temperature;BMP_pressure;BME280_temperature;BME280_humidity;BME280_pressure;Samples;Min_cycle;Max_cycle;Signal;HPM_P1;HPM_P2
2020/12/17 00:00:32;;;;;;;;;;;;;;;;;;5101053;28;19985;-81
2020/12/17 00:02:58;;;;;;;;;;;;;;;;;;5101607;28;19928;-82
2020/12/17 00:05:25;;;;;;;;;;;;;;;;;;5102893;28;19970;-82
2020/12/17 00:07:51;;;;;;;;;;;;;;;;;;5098152;28;19928;-82
2020/12/17 00:10:18;;;;;;;;;;;;;;;;;;5101117;28;19931;-83
2020/12/17 00:12:44;;;;;;;;;;;;;;;;;;5101080;28;19969;-81
2020/12/17 00:15:10;;;;;;;;;;;;;;;;;;5102438;28;19935;-82
2020/12/17 00:17:37;;;;;;;;;;;;;;;;;;5098361;28;19932;-82
2020/12/17 00:20:03;;;;;;;;;;;;;;;;;;5103494;28;19931;-83
2020/12/17 00:22:30;;;;;;;;;;;;;;;;;;5110425;28;19949;-83
2020/12/17 00:24:56;;;;;;;;;;;;;;;;;;5085748;28;19946;-83
2020/12/17 00:27:23;;;;;;;;;;;;;;;;;;5096406;28;19924;-83
2020/12/17 00:29:49;;;;;;;;;;;;;;;;;;5099684;28;20373;-83
2020/12/17 00:32:15;;;;;;;;;;;;;;;;;;5099283;28;19935;-83
2020/12/17 00:34:42;;;;;;;;;;;;;;;;;;5094837;28;19932;-84
2020/12/17 00:37:08;;;;;;;;;;;;;;;;;;5096635;28;20011;-83
2020/12/17 00:39:35;;;;;;;;;;;;;;;;;;5083772;28;19953;-83
2020/12/17 00:42:02;;;;;;;;;;;;;;;;;;5111320;28;19924;-83
2020/12/17 00:44:29;;;;;;;;;;;;;;;;;;5096190;28;19924;-83
2020/12/17 00:46:55;;;;;;;;;;;;;;;;;;5108756;28;19927;-82
2020/12/17 00:49:21;;;;;;;;;;;;;;;;;;5101098;28;19935;-82
2020/12/17 00:51:48;;;;;;;;;;;;;;;;;;5098756;28;19924;-82
2020/12/17 00:54:14;;;;;;;;;;;;;;;;;;5105953;28;20334;-82
2020/12/17 00:56:40;;;;;;;;;;;;;;;;;;5086520;28;19932;-82
2020/12/17 00:59:07;;;;;;;;;;;;;;;;;;5079765;28;19932;-82
2020/12/17 01:01:33;;;;;;;;;;;;;;;;;;5090682;28;19924;-82
2020/12/17 01:04:00;;;;;;;;;;;;;;;;;;5095703;28;19925;-82
2020/12/17 01:06:26;;;;;;;;;;;;;;;;;;5079283;28;19925;-83
2020/12/17 01:08:52;;;;;;;;;;;;;;;;;;5091559;28;19908;-82
2020/12/17 01:11:19;;;;;;;;;;;;;;;;;;5119269;28;19908;-83
2020/12/17 01:13:45;;;;;;;;;;;;;;;;;;5119100;28;19908;-84
2020/12/17 01:16:11;;;;;;;;;;;;;;;;;;5104478;28;19931;-82
2020/12/17 01:18:38;;;;;;;;;;;;;;;;;;5104680;28;19924;-82
2020/12/17 01:21:04;;;;;;;;;;;;;;;;;;5104625;28;19924;-82
2020/12/17 01:23:31;;;;;;;;;;;;;;;;;;5104737;28;19928;-82
2020/12/17 01:25:57;;;;;;;;;;;;;;;;;;5104784;28;19924;-82
2020/12/17 01:28:23;;;;;;;;;;;;;;;;;;5105180;28;20364;-83
2020/12/17 01:30:50;;;;;;;;;;;;;;;;;;5104558;28;19924;-83
2020/12/17 01:33:18;;;;;;;;;;;;;;;;;;5105283;28;19946;-83
2020/12/17 01:35:44;;;;;;;;;;;;;;;;;;5103612;28;19924;-82
2020/12/17 01:38:10;;;;;;;;;;;;;;;;;;5096830;28;19939;-84
2020/12/17 01:40:37;;;;;;;;;;;;;;;;;;5124079;28;19915;-85
2020/12/17 01:43:03;;;;;;;;;;;;;;;;;;5114928;28;20421;-83
2020/12/17 01:45:30;;;;;;;;;;;;;;;;;;5112397;28;19931;-83
2020/12/17 01:47:56;;;;;;;;;;;;;;;;;;5104556;28;19981;-83
2020/12/17 01:50:22;;;;;;;;;;;;;;;;;;5104633;28;19924;-83
2020/12/17 01:52:49;;;;;;;;;;;;;;;;;;5104038;28;19924;-83
2020/12/17 01:55:15;;;;;;;;;;;;;;;;;;5104189;28;19924;-83
2020/12/17 01:57:41;;;;;;;;;;;;;;;;;;5103740;28;20042;-83
2020/12/17 02:00:08;;;;;;;;;;;;;;;;;;5118431;28;19924;-83
2020/12/17 02:02:34;;;;;;;;;;;;;;;;;;5106820;28;19932;-84
2020/12/17 02:05:01;;;;;;;;;;;;;;;;;;5104122;28;19928;-84
2020/12/17 02:07:27;;;;;;;;;;;;;;;;;;5112381;28;19912;-85
2020/12/17 02:09:53;;;;;;;;;;;;;;;;;;5121124;28;19924;-82
2020/12/17 02:12:20;;;;;;;;;;;;;;;;;;5111250;28;19924;-84
2020/12/17 02:14:46;;;;;;;;;;;;;;;;;;5120211;28;19922;-83
2020/12/17 02:17:12;;;;;;;;;;;;;;;;;;5119860;28;19930;-85
2020/12/17 02:19:39;;;;;;;;;;;;;;;;;;5108406;28;20400;-83
2020/12/17 02:22:05;;;;;;;;;;;;;;;;;;5104603;28;19924;-82
2020/12/17 02:24:32;;;;;;;;;;;;;;;;;;5103710;28;19946;-83
2020/12/17 02:26:58;;;;;;;;;;;;;;;;;;5103298;28;20296;-83
2020/12/17 02:29:25;;;;;;;;;;;;;;;;;;5105162;28;19931;-82
2020/12/17 02:31:52;;;;;;;;;;;;;;;;;;5104394;28;19931;-83
2020/12/17 02:34:18;;;;;;;;;;;;;;;;;;5104495;28;19924;-83
2020/12/17 02:36:45;;;;;;;;;;;;;;;;;;5104598;28;19924;-82
2020/12/17 02:39:11;;;;;;;;;;;;;;;;;;5104832;28;19932;-84
2020/12/17 02:41:37;;;;;;;;;;;;;;;;;;5104114;28;19924;-83
2020/12/17 02:44:04;;;;;;;;;;;;;;;;;;5104856;28;19924;-83
2020/12/17 02:46:30;;;;;;;;;;;;;;;;;;5099224;28;20303;-84
2020/12/17 02:48:56;;;;;;;;;;;;;;;;;;5097375;28;19928;-84
2020/12/17 02:51:23;;;;;;;;;;;;;;;;;;5111696;28;19924;-84
2020/12/17 02:53:49;;;;;;;;;;;;;;;;;;5107572;28;19924;-83
2020/12/17 02:56:16;;;;;;;;;;;;;;;;;;5118095;28;19908;-83
2020/12/17 02:58:42;;;;;;;;;;;;;;;;;;5103051;28;19929;-85
2020/12/17 03:01:08;;;;;;;;;;;;;;;;;;5111215;28;19969;-83
2020/12/17 03:03:35;;;;;;;;;;;;;;;;;;5112675;28;19908;-83
2020/12/17 03:06:01;;;;;;;;;;;;;;;;;;5110664;28;20311;-83
2020/12/17 03:08:27;;;;;;;;;;;;;;;;;;5141720;22;19930;-83
2020/12/17 03:10:54;;;;;;;;;;;;;;;;;;5138794;27;19973;-81
2020/12/17 03:13:20;;;;;;;;;;;;;;;;;;5139571;27;19924;-84
2020/12/17 03:15:46;;;;;;;;;;;;;;;;;;5144902;27;19923;-81
2020/12/17 03:18:13;;;;;;;;;;;;;;;;;;5159733;27;19935;-83
2020/12/17 03:20:39;;;;;;;;;;;;;;;;;;5160537;27;19923;-83
2020/12/17 03:23:05;;;;;;;;;;;;;;;;;;5159063;27;19923;-83
2020/12/17 03:25:32;;;;;;;;;;;;;;;;;;5159189;27;19923;-83
2020/12/17 03:27:58;;;;;;;;;;;;;;;;;;5145251;27;19923;-83
2020/12/17 03:30:25;;;;;;;;;;;;;;;;;;5127278;27;19953;-83
2020/12/17 03:32:51;;;;;;;;;;;;;;;;;;5136123;27;19931;-82
2020/12/17 03:35:17;;;;;;;;;;;;;;;;;;5136483;27;19931;-83
2020/12/17 03:37:44;;;;;;;;;;;;;;;;;;5137071;27;19972;-83
2020/12/17 03:40:10;;;;;;;;;;;;;;;;;;5149055;27;19960;-82
2020/12/17 03:42:36;;;;;;;;;;;;;;;;;;5157061;27;19929;-82
2020/12/17 03:45:03;;;;;;;;;;;;;;;;;;5138108;27;19923;-83
2020/12/17 03:47:29;;;;;;;;;;;;;;;;;;5143142;28;20317;-83
2020/12/17 03:49:55;;;;;;;;;;;;;;;;;;5137423;28;19923;-83
2020/12/17 03:52:22;;;;;;;;;;;;;;;;;;5137457;28;19930;-82
2020/12/17 03:54:48;;;;;;;;;;;;;;;;;;5146338;28;20440;-82
2020/12/17 03:57:15;;;;;;;;;;;;;;;;;;5139888;28;19924;-83
2020/12/17 03:59:41;;;;;;;;;;;;;;;;;;5140451;28;20004;-83
2020/12/17 04:02:07;;;;;;;;;;;;;;;;;;5140246;28;20403;-83
2020/12/17 04:04:34;;;;;;;;;;;;;;;;;;5129951;28;19976;-81
2020/12/17 04:07:00;;;;;;;;;;;;;;;;;;5138713;28;19930;-81
2020/12/17 04:09:27;;;;;;;;;;;;;;;;;;5133670;28;19928;-81
2020/12/17 04:11:53;;;;;;;;;;;;;;;;;;5140395;28;19923;-82
2020/12/17 04:14:19;;;;;;;;;;;;;;;;;;5139093;28;19924;-81
2020/12/17 04:16:46;;;;;;;;;;;;;;;;;;5139053;28;19923;-81
2020/12/17 04:19:12;;;;;;;;;;;;;;;;;;5138701;28;19978;-82
2020/12/17 04:21:38;;;;;;;;;;;;;;;;;;5139567;28;19927;-82
2020/12/17 04:24:05;;;;;;;;;;;;;;;;;;5139000;28;20007;-81
2020/12/17 04:26:31;;;;;;;;;;;;;;;;;;5138869;28;19923;-83
2020/12/17 04:29:01;;;;;;;;;;;;;;;;;;5138939;27;20295;-81
2020/12/17 04:31:27;;;;;;;;;;;;;;;;;;5143117;27;20287;-83
2020/12/17 04:33:53;;;;;;;;;;;;;;;;;;5143289;27;19927;-83
2020/12/17 04:36:20;;;;;;;;;;;;;;;;;;5143053;27;19924;-80
2020/12/17 04:38:46;;;;;;;;;;;;;;;;;;5143499;27;20402;-81
2020/12/17 04:41:12;;;;;;;;;;;;;;;;;;5144465;27;19944;-82
2020/12/17 04:43:39;;;;;;;;;;;;;;;;;;5144961;27;19935;-82
2020/12/17 04:46:05;;;;;;;;;;;;;;;;;;5145075;27;19930;-82
2020/12/17 04:48:31;;;;;;;;;;;;;;;;;;5145702;27;19923;-82
2020/12/17 04:50:58;;;;;;;;;;;;;;;;;;5145240;27;19931;-81
2020/12/17 04:53:24;;;;;;;;;;;;;;;;;;5144695;27;19923;-82
2020/12/17 04:55:51;;;;;;;;;;;;;;;;;;5145316;27;19923;-82
2020/12/17 04:58:17;;;;;;;;;;;;;;;;;;5144972;27;19924;-82
2020/12/17 05:00:44;;;;;;;;;;;;;;;;;;5146509;27;19927;-82
2020/12/17 05:03:11;;;;;;;;;;;;;;;;;;5146503;27;19930;-82
2020/12/17 05:05:37;;;;;;;;;;;;;;;;;;5146184;27;19923;-82
2020/12/17 05:08:04;;;;;;;;;;;;;;;;;;5145468;27;19927;-82
2020/12/17 05:10:30;;;;;;;;;;;;;;;;;;5145794;27;19970;-83
2020/12/17 05:12:56;;;;;;;;;;;;;;;;;;5143731;27;19930;-82
2020/12/17 05:15:23;;;;;;;;;;;;;;;;;;5136427;27;19931;-82
2020/12/17 05:17:49;;;;;;;;;;;;;;;;;;5140395;27;19930;-82
2020/12/17 05:20:16;;;;;;;;;;;;;;;;;;5143787;27;20330;-82
2020/12/17 05:22:42;;;;;;;;;;;;;;;;;;5143308;27;19930;-82
2020/12/17 05:25:08;;;;;;;;;;;;;;;;;;5143996;27;19930;-82
2020/12/17 05:27:35;;;;;;;;;;;;;;;;;;5142837;27;19976;-82
2020/12/17 05:30:01;;;;;;;;;;;;;;;;;;5144248;27;19914;-83
2020/12/17 05:32:28;;;;;;;;;;;;;;;;;;5141699;27;19923;-83
2020/12/17 05:34:54;;;;;;;;;;;;;;;;;;5149151;27;19928;-83
2020/12/17 05:37:20;;;;;;;;;;;;;;;;;;5147683;27;19924;-82
2020/12/17 05:39:47;;;;;;;;;;;;;;;;;;5145482;27;19930;-83
2020/12/17 05:42:13;;;;;;;;;;;;;;;;;;5147990;27;19964;-82
2020/12/17 05:44:40;;;;;;;;;;;;;;;;;;5155148;27;19931;-83
2020/12/17 05:47:06;;;;;;;;;;;;;;;;;;5145238;27;19924;-83
2020/12/17 05:49:33;;;;;;;;;;;;;;;;;;5147302;27;19925;-83
2020/12/17 05:51:59;;;;;;;;;;;;;;;;;;5148375;27;19923;-83
2020/12/17 05:54:26;;;;;;;;;;;;;;;;;;5152072;27;19923;-82
2020/12/17 05:56:52;;;;;;;;;;;;;;;;;;5152290;27;19924;-83
2020/12/17 05:59:19;;;;;;;;;;;;;;;;;;5137912;27;20010;-83
2020/12/17 06:01:45;;;;;;;;;;;;;;;;;;5149349;27;19911;-82
2020/12/17 06:04:14;;;;;;;;;;;;;;;;;;5151859;27;19928;-82
2020/12/17 06:06:40;;;;;;;;;;;;;;;;;;5145338;27;19924;-83
2020/12/17 06:09:07;;;;;;;;;;;;;;;;;;5143280;27;19923;-82
2020/12/17 06:11:33;;;;;;;;;;;;;;;;;;5136129;27;19935;-82
2020/12/17 06:13:59;;;;;;;;;;;;;;;;;;5149621;27;19923;-82
2020/12/17 06:16:26;;;;;;;;;;;;;;;;;;5148930;27;19930;-83
2020/12/17 06:24:29;;;;;;;;;;;;;;;;;;5062086;28;20012;-83
2020/12/17 06:26:55;;;;;;;;;;;;;;;;;;5061826;28;19925;-83
2020/12/17 06:29:22;;;;;;;;;;;;;;;;;;5060815;28;19925;-82
2020/12/17 06:31:48;;;;;;;;;;;;;;;;;;5060800;28;19925;-83
2020/12/17 06:34:15;;;;;;;;;;;;;;;;;;5062035;28;19948;-83
2020/12/17 06:36:41;;;;;;;;;;;;;;;;;;5060681;28;19932;-83
2020/12/17 06:39:07;;;;;;;;;;;;;;;;;;5061272;28;19924;-83
2020/12/17 06:41:34;;;;;;;;;;;;;;;;;;5064031;28;19935;-83
2020/12/17 06:44:00;;;;;;;;;;;;;;;;;;5072104;28;19928;-82
2020/12/17 06:46:27;;;;;;;;;;;;;;;;;;5069240;28;19924;-82
2020/12/17 06:48:53;;;;;;;;;;;;;;;;;;5071987;28;19951;-82
2020/12/17 06:51:19;;;;;;;;;;;;;;;;;;5063079;28;19932;-83
2020/12/17 06:53:46;;;;;;;;;;;;;;;;;;5078204;28;19996;-83
2020/12/17 06:56:12;;;;;;;;;;;;;;;;;;5078204;28;19924;-83
2020/12/17 06:58:39;;;;;;;;;;;;;;;;;;5087403;28;19924;-84
2020/12/17 07:01:05;;;;;;;;;;;;;;;;;;5108261;27;19923;-82
2020/12/17 07:03:31;;;;;;;;;;;;;;;;;;5144677;27;19923;-83
2020/12/17 07:05:58;;;;;;;;;;;;;;;;;;5143824;27;19931;-83
2020/12/17 07:08:24;;;;;;;;;;;;;;;;;;5146209;27;19924;-82
2020/12/17 07:10:50;;;;;;;;;;;;;;;;;;5145886;27;19924;-83
2020/12/17 07:13:17;;;;;;;;;;;;;;;;;;5141548;27;19923;-82
2020/12/17 07:15:44;;;;;;;;;;;;;;;;;;5144439;27;19934;-82
2020/12/17 07:18:10;;;;;;;;;;;;;;;;;;5159946;27;19923;-80
2020/12/17 07:20:37;;;;;;;;;;;;;;;;;;5149586;27;19934;-83
2020/12/17 07:23:03;;;;;;;;;;;;;;;;;;5148088;27;19927;-81
2020/12/17 07:25:30;;;;;;;;;;;;;;;;;;5154597;27;19923;-82
2020/12/17 07:27:56;;;;;;;;;;;;;;;;;;5142366;27;19923;-82
2020/12/17 07:30:22;;;;;;;;;;;;;;;;;;5133701;27;19930;-82
2020/12/17 07:32:49;;;;;;;;;;;;;;;;;;5123626;27;19935;-81
2020/12/17 07:35:15;;;;;;;;;;;;;;;;;;5141660;27;19928;-82
2020/12/17 07:37:42;;;;;;;;;;;;;;;;;;5139928;27;19945;-80
2020/12/17 07:40:08;;;;;;;;;;;;;;;;;;5122949;27;19924;-82
2020/12/17 07:42:34;;;;;;;;;;;;;;;;;;5126907;28;19930;-82
2020/12/17 07:45:09;;;;;;;;;;;;;;;;;;5141511;27;19931;-83
2020/12/17 07:47:35;;;;;;;;;;;;;;;;;;5142741;27;19928;-83
2020/12/17 07:50:02;;;;;;;;;;;;;;;;;;5141664;28;19923;-83
2020/12/17 07:52:28;;;;;;;;;;;;;;;;;;5142627;28;19930;-84
2020/12/17 07:54:54;;;;;;;;;;;;;;;;;;5140284;28;19976;-83
2020/12/17 07:57:21;;;;;;;;;;;;;;;;;;5141173;28;19923;-82
2020/12/17 07:59:47;;;;;;;;;;;;;;;;;;5140085;28;19923;-82
2020/12/17 08:02:14;;;;;;;;;;;;;;;;;;5145145;28;19935;-82
2020/12/17 08:04:40;;;;;;;;;;;;;;;;;;5144287;27;20402;-83
2020/12/17 08:07:06;;;;;;;;;;;;;;;;;;5137744;27;19931;-83
2020/12/17 08:09:33;;;;;;;;;;;;;;;;;;5140427;27;19980;-83
2020/12/17 08:11:59;;;;;;;;;;;;;;;;;;5124794;28;19924;-82
2020/12/17 08:25:28;;;;;;;;;;;;;;;;;;5096736;28;20011;-83
2020/12/17 08:27:54;;;;;;;;;;;;;;;;;;5088864;28;20013;-82
2020/12/17 08:30:21;;;;;;;;;;;;;;;;;;5104754;28;19924;-83
2020/12/17 08:32:48;;;;;;;;;;;;;;;;;;5102256;28;19923;-83
2020/12/17 08:35:14;;;;;;;;;;;;;;;;;;5102522;28;20453;-82
2020/12/17 08:37:42;;;;;;;;;;;;;;;;;;5102698;28;19973;-84
2020/12/17 08:51:13;;;;;;;;;;;;;;;;;;5032322;28;19932;-83
2020/12/17 08:53:39;;;;;;;;;;;;;;;;;;5055897;28;20393;-84
2020/12/17 09:01:39;;;;;;;;;;;;;;;;;;4949817;28;20285;-84
2020/12/17 09:06:48;;;;;;;;;;;;;;;;;;4971347;28;19910;-84
2020/12/17 09:12:01;;;;;;;;;;;;;;;;;;4953711;28;20396;-83
2020/12/17 09:14:27;;;;;;;;;;;;;;;;;;4944231;28;19967;-83
2020/12/17 09:16:54;;;;;;;;;;;;;;;;;;4956943;28;19931;-83
2020/12/17 09:19:20;;;;;;;;;;;;;;;;;;4957991;29;20072;-83
2020/12/17 09:21:47;;;;;;;;;;;;;;;;;;4955378;29;19935;-83
2020/12/17 09:24:13;;;;;;;;;;;;;;;;;;4958797;28;19931;-83
2020/12/17 09:26:40;;;;;;;;;;;;;;;;;;4997102;28;19937;-83
2020/12/17 09:29:06;;;;;;;;;;;;;;;;;;4987762;28;20013;-83
2020/12/17 09:31:33;;;;;;;;;;;;;;;;;;5001093;28;19929;-83
2020/12/17 09:33:59;;;;;;;;;;;;;;;;;;5014074;28;20325;-83
2020/12/17 09:39:09;;;;;;;;;;;;;;;;;;5054458;28;19955;-83
2020/12/17 09:41:36;;;;;;;;;;;;;;;;;;5069595;28;20483;-83
2020/12/17 09:44:02;;;;;;;;;;;;;;;;;;5109465;27;19927;-83
2020/12/17 09:46:28;;;;;;;;;;;;;;;;;;5140145;27;19935;-83
2020/12/17 09:48:59;;;;;;;;;;;;;;;;;;5140561;27;20353;-82
2020/12/17 09:51:26;;;;;;;;;;;;;;;;;;5139224;27;19924;-83
2020/12/17 09:53:52;;;;;;;;;;;;;;;;;;5137096;27;19931;-81
2020/12/17 09:56:18;;;;;;;;;;;;;;;;;;5136044;27;19923;-82
2020/12/17 09:58:45;;;;;;;;;;;;;;;;;;5142316;27;20398;-82
2020/12/17 10:01:11;;;;;;;;;;;;;;;;;;5141879;27;19991;-83
2020/12/17 10:03:38;;;;;;;;;;;;;;;;;;5138001;27;19927;-83
2020/12/17 10:06:04;;;;;;;;;;;;;;;;;;5139142;27;20252;-82
2020/12/17 10:08:30;;;;;;;;;;;;;;;;;;5149064;27;19934;-82
2020/12/17 10:10:57;;;;;;;;;;;;;;;;;;5137572;27;19924;-82
2020/12/17 10:13:23;;;;;;;;;;;;;;;;;;5129778;27;20304;-82
2020/12/17 10:15:50;;;;;;;;;;;;;;;;;;5135776;27;19937;-82
2020/12/17 10:18:17;;;;;;;;;;;;;;;;;;5139544;27;19960;-83
2020/12/17 10:20:46;;;;;;;;;;;;;;;;;;5139250;27;20383;-83
2020/12/17 10:23:12;;;;;;;;;;;;;;;;;;5139601;27;20391;-83
2020/12/17 10:25:39;;;;;;;;;;;;;;;;;;5149845;27;19975;-83
2020/12/17 10:28:05;;;;;;;;;;;;;;;;;;5140511;27;19924;-83
2020/12/17 10:30:32;;;;;;;;;;;;;;;;;;5140421;27;19927;-82
2020/12/17 10:32:58;;;;;;;;;;;;;;;;;;5125919;27;19923;-82
2020/12/17 10:35:24;;;;;;;;;;;;;;;;;;5135517;27;19931;-82
2020/12/17 10:37:51;;;;;;;;;;;;;;;;;;5138934;27;19923;-83
2020/12/17 10:40:19;;;;;;;;;;;;;;;;;;5141187;27;19923;-83
2020/12/17 10:42:45;;;;;;;;;;;;;;;;;;5140689;27;19963;-83
2020/12/17 10:45:12;;;;;;;;;;;;;;;;;;5145702;27;19923;-83
2020/12/17 10:47:38;;;;;;;;;;;;;;;;;;5149872;27;20014;-86
2020/12/17 10:50:04;;;;;;;;;;;;;;;;;;5138262;27;19923;-83
2020/12/17 10:52:31;;;;;;;;;;;;;;;;;;5132629;27;19924;-85
2020/12/17 10:54:57;;;;;;;;;;;;;;;;;;5144734;27;19928;-84
2020/12/17 10:57:24;;;;;;;;;;;;;;;;;;5150114;27;19907;-83
2020/12/17 10:59:50;;;;;;;;;;;;;;;;;;5147498;27;19923;-84
2020/12/17 11:02:17;;;;;;;;;;;;;;;;;;5133583;27;19923;-85
2020/12/17 11:04:43;;;;;;;;;;;;;;;;;;5145778;22;19930;-82
2020/12/17 11:07:09;;;;;;;;;;;;;;;;;;5122000;28;19928;-83
2020/12/17 11:09:36;;;;;;;;;;;;;;;;;;5117653;28;19924;-82
2020/12/17 11:12:02;;;;;;;;;;;;;;;;;;5129149;28;19924;-83
2020/12/17 11:14:28;;;;;;;;;;;;;;;;;;5127384;28;19911;-82
2020/12/17 11:16:55;;;;;;;;;;;;;;;;;;5137334;28;19928;-83
2020/12/17 11:19:26;;;;;;;;;;;;;;;;;;5122772;28;20451;-82
2020/12/17 11:21:52;;;;;;;;;;;;;;;;;;5125769;28;19927;-83
2020/12/17 11:24:20;;;;;;;;;;;;;;;;;;5125298;28;19924;-82
2020/12/17 11:26:47;;;;;;;;;;;;;;;;;;5120491;28;20438;-83
2020/12/17 11:29:13;;;;;;;;;;;;;;;;;;5117416;28;19938;-83
2020/12/17 11:31:41;;;;;;;;;;;;;;;;;;5128481;28;19924;-83
2020/12/17 11:34:07;;;;;;;;;;;;;;;;;;5122183;28;19953;-82
2020/12/17 11:36:33;;;;;;;;;;;;;;;;;;5120977;28;19931;-82
2020/12/17 11:39:00;;;;;;;;;;;;;;;;;;5121190;28;19934;-82
2020/12/17 11:41:26;;;;;;;;;;;;;;;;;;5118601;28;19927;-82
2020/12/17 11:43:53;;;;;;;;;;;;;;;;;;5120642;28;19923;-83
2020/12/17 11:46:19;;;;;;;;;;;;;;;;;;5121495;28;19984;-82
2020/12/17 11:48:46;;;;;;;;;;;;;;;;;;5113917;28;19932;-82
2020/12/17 11:51:12;;;;;;;;;;;;;;;;;;5121902;28;19924;-83
2020/12/17 11:53:38;;;;;;;;;;;;;;;;;;5123420;28;19923;-83
2020/12/17 11:56:05;;;;;;;;;;;;;;;;;;5120951;28;19946;-85
2020/12/17 12:12:15;;;;;;;;;;;;;;;;;;5123400;28;19927;-83
2020/12/17 12:14:45;;;;;;;;;;;;;;;;;;5129030;28;19924;-84
2020/12/17 12:20:28;;;;;;;;;;;;;;;;;;5067522;28;19924;-83
2020/12/17 12:22:55;;;;;;;;;;;;;;;;;;5085568;28;19924;-84
2020/12/17 12:25:26;;;;;;;;;;;;;;;;;;5092049;28;20400;-82
2020/12/17 12:27:52;;;;;;;;;;;;;;;;;;5080232;28;19924;-83
2020/12/17 12:30:19;;;;;;;;;;;;;;;;;;5063343;28;20415;-82
2020/12/17 12:32:45;;;;;;;;;;;;;;;;;;5069606;28;20331;-83
2020/12/17 12:35:12;;;;;;;;;;;;;;;;;;5075882;28;19925;-82
2020/12/17 12:37:38;;;;;;;;;;;;;;;;;;5076793;28;20351;-83
2020/12/17 12:40:05;;;;;;;;;;;;;;;;;;5078993;28;19996;-82
2020/12/17 12:42:31;;;;;;;;;;;;;;;;;;5077395;28;19928;-82
2020/12/17 12:44:58;;;;;;;;;;;;;;;;;;5079264;28;19935;-83
2020/12/17 12:47:26;;;;;;;;;;;;;;;;;;5094745;28;19909;-84
2020/12/17 12:49:52;;;;;;;;;;;;;;;;;;5084103;28;19924;-84
2020/12/17 12:52:19;;;;;;;;;;;;;;;;;;5130493;27;19931;-83
2020/12/17 12:54:46;;;;;;;;;;;;;;;;;;5124174;28;20016;-83
2020/12/17 12:57:13;;;;;;;;;;;;;;;;;;5124053;28;19924;-83
2020/12/17 12:59:39;;;;;;;;;;;;;;;;;;5123249;27;19932;-83
2020/12/17 13:02:08;;;;;;;;;;;;;;;;;;5124563;28;19969;-84
2020/12/17 13:04:34;;;;;;;;;;;;;;;;;;5110946;28;20021;-80
2020/12/17 13:07:05;;;;;;;;;;;;;;;;;;5130013;28;19945;-84
2020/12/17 13:09:32;;;;;;;;;;;;;;;;;;5130860;28;19991;-83
2020/12/17 13:11:58;;;;;;;;;;;;;;;;;;5128328;28;19946;-82
2020/12/17 13:14:24;;;;;;;;;;;;;;;;;;5119091;28;19923;-82
2020/12/17 13:16:51;;;;;;;;;;;;;;;;;;5112702;28;19925;-83
2020/12/17 13:19:18;;;;;;;;;;;;;;;;;;5102376;28;19935;-82
2020/12/17 13:21:44;;;;;;;;;;;;;;;;;;5114725;28;20003;-82
2020/12/17 13:24:11;;;;;;;;;;;;;;;;;;5121694;28;19924;-82
2020/12/17 13:26:37;;;;;;;;;;;;;;;;;;5119966;28;19934;-82
2020/12/17 13:29:04;;;;;;;;;;;;;;;;;;5121510;28;19930;-82
2020/12/17 13:31:31;;;;;;;;;;;;;;;;;;5104828;28;20001;-82
2020/12/17 13:33:58;;;;;;;;;;;;;;;;;;5135455;28;20414;-83
2020/12/17 13:36:27;;;;;;;;;;;;;;;;;;5131245;28;19927;-82
2020/12/17 13:38:53;;;;;;;;;;;;;;;;;;5124847;28;20384;-82
2020/12/17 13:41:20;;;;;;;;;;;;;;;;;;5117330;28;19945;-85
2020/12/17 13:43:46;;;;;;;;;;;;;;;;;;5125281;28;20057;-84
2020/12/17 13:46:13;;;;;;;;;;;;;;;;;;5116275;28;19924;-84
2020/12/17 13:48:39;;;;;;;;;;;;;;;;;;5124671;28;19999;-84
2020/12/17 13:51:05;;;;;;;;;;;;;;;;;;5125730;28;19930;-83
2020/12/17 13:53:32;;;;;;;;;;;;;;;;;;5126210;28;19924;-85
2020/12/17 13:55:58;;;;;;;;;;;;;;;;;;5125978;28;19931;-83
2020/12/17 13:58:25;;;;;;;;;;;;;;;;;;5124297;28;20372;-84
2020/12/17 14:00:52;;;;;;;;;;;;;;;;;;5125400;28;19959;-84
2020/12/17 14:03:18;;;;;;;;;;;;;;;;;;5123890;28;19924;-84
2020/12/17 14:05:45;;;;;;;;;;;;;;;;;;5117950;28;20294;-83
2020/12/17 14:08:11;;;;;;;;;;;;;;;;;;5121128;28;19932;-82
2020/12/17 14:10:38;;;;;;;;;;;;;;;;;;5122984;28;19931;-83
2020/12/17 14:13:04;;;;;;;;;;;;;;;;;;5122027;28;19946;-82
2020/12/17 14:15:30;;;;;;;;;;;;;;;;;;5104999;28;20372;-84
2020/12/17 14:17:57;;;;;;;;;;;;;;;;;;5121458;28;19928;-82
2020/12/17 14:20:24;;;;;;;;;;;;;;;;;;5107406;28;19924;-82
2020/12/17 14:22:50;;;;;;;;;;;;;;;;;;5122144;28;20341;-82
2020/12/17 14:25:17;;;;;;;;;;;;;;;;;;5128135;28;19964;-83
2020/12/17 14:27:43;;;;;;;;;;;;;;;;;;5131599;28;19912;-84
2020/12/17 14:30:10;;;;;;;;;;;;;;;;;;5125607;28;19924;-83
2020/12/17 14:32:36;;;;;;;;;;;;;;;;;;5118542;28;20410;-82
2020/12/17 14:35:03;;;;;;;;;;;;;;;;;;5118214;28;19924;-82
2020/12/17 14:37:29;;;;;;;;;;;;;;;;;;5123916;28;19907;-82
2020/12/17 14:39:56;;;;;;;;;;;;;;;;;;5124037;28;20402;-81
2020/12/17 14:42:22;;;;;;;;;;;;;;;;;;5122730;28;19923;-82
2020/12/17 14:44:48;;;;;;;;;;;;;;;;;;5121242;28;21030;-83
2020/12/17 14:47:15;;;;;;;;;;;;;;;;;;5102559;28;19933;-83
2020/12/17 14:49:41;;;;;;;;;;;;;;;;;;5111641;28;19977;-86
2020/12/17 14:52:08;;;;;;;;;;;;;;;;;;5122570;28;19924;-84
2020/12/17 14:54:35;;;;;;;;;;;;;;;;;;5122860;28;19924;-82
2020/12/17 14:57:01;;;;;;;;;;;;;;;;;;5106023;28;19931;-81
2020/12/17 14:59:27;;;;;;;;;;;;;;;;;;5108064;28;19927;-82
2020/12/17 15:01:54;;;;;;;;;;;;;;;;;;5120373;28;19924;-83
2020/12/17 15:04:20;;;;;;;;;;;;;;;;;;5120988;28;19977;-83
2020/12/17 15:06:47;;;;;;;;;;;;;;;;;;5137658;28;19920;-82
2020/12/17 15:09:13;;;;;;;;;;;;;;;;;;5127988;28;19945;-82
2020/12/17 15:11:41;;;;;;;;;;;;;;;;;;5125103;28;20583;-82
2020/12/17 15:14:07;;;;;;;;;;;;;;;;;;5124781;28;20331;-83
2020/12/17 15:16:33;;;;;;;;;;;;;;;;;;5118470;28;19946;-84
2020/12/17 15:19:00;;;;;;;;;;;;;;;;;;5122462;28;19930;-83
2020/12/17 15:21:26;;;;;;;;;;;;;;;;;;5122799;28;19977;-83
2020/12/17 15:23:55;;;;;;;;;;;;;;;;;;5115869;28;19931;-84
2020/12/17 15:26:22;;;;;;;;;;;;;;;;;;5115009;28;19983;-83
2020/12/17 15:28:48;;;;;;;;;;;;;;;;;;5123881;28;19925;-83
2020/12/17 15:31:15;;;;;;;;;;;;;;;;;;5124338;28;19930;-82
2020/12/17 15:33:41;;;;;;;;;;;;;;;;;;5114239;28;20007;-82
2020/12/17 15:36:08;;;;;;;;;;;;;;;;;;5110474;28;19990;-81
2020/12/17 15:38:35;;;;;;;;;;;;;;;;;;5114225;28;19928;-82
2020/12/17 15:41:02;;;;;;;;;;;;;;;;;;5118621;28;19924;-82
2020/12/17 15:43:28;;;;;;;;;;;;;;;;;;5126727;28;20439;-82
2020/12/17 15:45:56;;;;;;;;;;;;;;;;;;5121790;28;19924;-81
2020/12/17 15:48:25;;;;;;;;;;;;;;;;;;5122933;28;19931;-83
2020/12/17 15:50:51;;;;;;;;;;;;;;;;;;5115116;28;19924;-84
2020/12/17 15:53:18;;;;;;;;;;;;;;;;;;5131124;28;19908;-83
2020/12/17 15:55:45;;;;;;;;;;;;;;;;;;5125541;28;19928;-83
2020/12/17 15:58:13;;;;;;;;;;;;;;;;;;5133689;28;19924;-83
2020/12/17 16:00:39;;;;;;;;;;;;;;;;;;5120055;28;20372;-83
2020/12/17 16:03:06;;;;;;;;;;;;;;;;;;5122447;28;19931;-83
2020/12/17 16:05:33;;;;;;;;;;;;;;;;;;5123105;28;19924;-82
2020/12/17 16:07:59;;;;;;;;;;;;;;;;;;5123026;28;19925;-83
2020/12/17 16:10:26;;;;;;;;;;;;;;;;;;5128407;28;20001;-83
2020/12/17 16:12:53;;;;;;;;;;;;;;;;;;5120511;28;19931;-83
2020/12/17 16:15:20;;;;;;;;;;;;;;;;;;5120736;28;19931;-83
2020/12/17 16:17:47;;;;;;;;;;;;;;;;;;5123277;28;19924;-84
2020/12/17 16:20:14;;;;;;;;;;;;;;;;;;5119190;28;19989;-85
2020/12/17 16:22:40;;;;;;;;;;;;;;;;;;5111997;28;19959;-87
2020/12/17 16:25:07;;;;;;;;;;;;;;;;;;5117258;28;19927;-84
2020/12/17 16:27:34;;;;;;;;;;;;;;;;;;5108788;28;19928;-84
2020/12/17 16:30:00;;;;;;;;;;;;;;;;;;5110482;28;19998;-83
2020/12/17 16:32:27;;;;;;;;;;;;;;;;;;5118785;28;19927;-83
2020/12/17 16:34:54;;;;;;;;;;;;;;;;;;5124597;28;20360;-83
2020/12/17 16:37:21;;;;;;;;;;;;;;;;;;5112637;28;19925;-84
2020/12/17 16:39:47;;;;;;;;;;;;;;;;;;5113645;28;19935;-83
2020/12/17 16:42:14;;;;;;;;;;;;;;;;;;5112248;28;21511;-84
2020/12/17 16:44:40;;;;;;;;;;;;;;;;;;5116189;28;19923;-83
2020/12/17 16:47:06;;;;;;;;;;;;;;;;;;5119433;28;19939;-84
2020/12/17 16:49:33;;;;;;;;;;;;;;;;;;5119230;28;20227;-83
2020/12/17 16:51:59;;;;;;;;;;;;;;;;;;5115835;28;19935;-84
2020/12/17 16:54:26;;;;;;;;;;;;;;;;;;5115005;28;19973;-84
2020/12/17 16:56:53;;;;;;;;;;;;;;;;;;5112440;28;19927;-82
2020/12/17 16:59:19;;;;;;;;;;;;;;;;;;5111212;28;19924;-83
2020/12/17 17:01:46;;;;;;;;;;;;;;;;;;5111829;27;19923;-83
2020/12/17 17:04:12;;;;;;;;;;;;;;;;;;5112467;28;20661;-83
2020/12/17 17:06:39;;;;;;;;;;;;;;;;;;5113841;28;19928;-82
2020/12/17 17:09:05;;;;;;;;;;;;;;;;;;5112022;28;20360;-81
2020/12/17 17:11:32;;;;;;;;;;;;;;;;;;5108480;28;20320;-81
2020/12/17 17:13:59;;;;;;;;;;;;;;;;;;5105157;27;19932;-81
2020/12/17 17:16:26;;;;;;;;;;;;;;;;;;5106848;28;19984;-82
2020/12/17 17:18:52;;;;;;;;;;;;;;;;;;5118945;28;19935;-80
2020/12/17 17:21:19;;;;;;;;;;;;;;;;;;5111985;28;19931;-82
2020/12/17 17:23:45;;;;;;;;;;;;;;;;;;5115077;28;19931;-80
2020/12/17 17:26:12;;;;;;;;;;;;;;;;;;5108596;28;20407;-82
2020/12/17 17:28:38;;;;;;;;;;;;;;;;;;5117732;28;19923;-85
2020/12/17 17:31:12;;;;;;;;;;;;;;;;;;5118369;28;19946;-82
2020/12/17 17:33:40;;;;;;;;;;;;;;;;;;5104094;28;19924;-84
2020/12/17 17:36:07;;;;;;;;;;;;;;;;;;5115430;28;19928;-83
2020/12/17 17:38:34;;;;;;;;;;;;;;;;;;5126273;28;19924;-84